x

New Dungeness - 17 Nm Ne Of Port Angeles, Wa (46088) Wave Buoy

12:50 - Fri 21st Jul 2017 All times are PDT. -7 hours from GMT.

  • Sig Wave height 1.0ft
  • Swell Direction
  • Peak Period 3s
  • Average Period 3s
  • Wind
    13mph, 16mph gusts
  • Sea Temp 53°f
  • Ar Temp 55°f
  • Sea Pressure 1019.1mb
  • New Dungeness - 17 Nm Ne Of Port Angeles, Wa
  • New Dungeness - 17 Nm Ne Of Port Angeles, Wa

More Historic Weather Station data

Upgrade to MSW Pro to gain access to the past 30 days of data for over 8000 Wavebouys and Weather Stations around the globe.

Join Pro

Comparision Forecast

View Surf forecast
   
Sex 07/21 12:50 1ft 3s 3s 13 16 mph 1019.1mb 53f 55f
12:20 1ft 3s 3s 13 16 mph 1019.2mb 53f 55f
Qui 07/20 11:50 1ft 3s 3s 16 16 mph 1019.1mb 53f 55f
11:20 1ft 3s 3s 13 16 mph 1019.2mb 53f 55f
10:50 1ft 3s 3s 16 18 mph 1019.2mb 53f 56f
10:20 1ft 3s 3s 13 16 mph 1019.3mb 53f 56f
9:50 1.3ft 3s 3s 13 16 mph 1019.3mb 53f 56f
9:20 1ft 3s 3s 16 18 mph 1019.1mb 53f 56f
8:50 1.3ft 3s 3s 13 16 mph 1019.1mb 53f 56f
8:20 1.3ft 3s 3s 16 18 mph 1019mb 53f 56f
7:50 1.3ft 3s 3s 13 16 mph 1019.1mb 53f 56f
7:20 1ft 3s 3s 16 16 mph 1019.1mb 53f 56f
6:50 1ft 3s 3s 13 16 mph 1019.1mb 54f 56f
6:20 0.7ft  -  3s 16 18 mph 1019.1mb 54f 56f
5:50 1ft 2s 3s 9 13 mph 1019.4mb 54f 56f
5:20 1ft 3s 3s 13 16 mph 1019.3mb 54f 56f
4:50 1ft 3s 3s 13 16 mph 1019.5mb 53f 56f
4:20 1ft 3s 3s 16 18 mph 1019.5mb 53f 57f
3:50 1.3ft 3s 3s 13 16 mph 1019.7mb 53f 56f
3:20 1ft 3s 3s 16 18 mph 1019.8mb 53f 56f
2:50 1ft 3s 3s 16 18 mph 1019.7mb 53f 56f
2:20 1ft 3s 3s 13 16 mph 1019.9mb 53f 57f
1:50 1ft 3s 3s 13 18 mph 1019.8mb 53f 57f
1:20 1ft 3s 3s 13 16 mph 1019.7mb 53f 57f
12:50 0.7ft  -  3s 11 11 mph 1019.6mb 53f 58f
12:20 0.7ft  -  4s 9 11 mph 1019.5mb 53f 57f
11:50 0.7ft  -  4s 9 11 mph 1019.3mb 54f 57f
11:20 0.7ft  -  4s 9 11 mph 1019mb 54f 56f
10:50 0.7ft  -  4s 7 9 mph 1018.9mb 53f 56f
10:20 0.7ft  -  4s 7 7 mph 1018.6mb 53f 56f
9:50 0.7ft  -  4s 7 9 mph 1018.5mb 53f 58f
9:20 0.7ft  -  4s 7 9 mph 1018.6mb 53f 56f
8:50 0.7ft  -  4s 4 4 mph 1018.4mb 52f 57f
8:20 0.7ft  -  4s 4 7 mph 1018.2mb 53f 58f
7:50 0.7ft  -  4s 4 7 mph 1017.9mb 52f 57f
7:20 0.7ft  -   -  7 7 mph 1017.8mb 52f 56f
6:50 0.7ft  -  4s 7 7 mph 1017.5mb 52f 57f
6:20 0.7ft  -  4s 7 7 mph 1017.3mb 52f 56f
5:50 0.7ft  -  4s 7 9 mph 1017.1mb 53f 57f
5:20 0.7ft  -  4s 4 7 mph 1016.9mb 52f 56f
4:50 0.7ft  -  3s 9 9 mph 1016.6mb 52f 56f
4:20 0.7ft  -  4s 9 11 mph 1016.2mb 53f 55f
3:50 1ft 4s 3s 9 11 mph 1015.9mb 53f 56f
3:20 1ft 4s 3s 11 16 mph 1015.6mb 53f 56f
2:50 1ft 3s 3s 11 13 mph 1015.7mb 53f 56f
2:20 1ft 3s 3s 9 11 mph 1015.7mb 53f 56f
1:50 1.3ft 3s 3s 11 13 mph 1015.6mb 53f 56f
1:20 1.3ft 3s 3s 16 18 mph 1015.5mb 53f 56f
12:50 1.3ft 3s 3s 16 16 mph 1015.4mb 53f 56f
12:20 1.3ft 3s 3s 13 16 mph 1015.4mb 53f 57f
Qua 07/19 11:50 1.3ft 4s 3s 11 13 mph 1015.2mb 53f 56f
11:20 1.6ft 3s 3s 11 13 mph 1015.2mb 53f 57f
10:50 2ft 4s 3s 16 18 mph 1015mb 53f 58f
10:20 2.5ft 4s 3s 16 18 mph 1014.8mb 53f 57f
9:50 2.5ft 4s 3s 20 22 mph 1014.6mb 53f 58f
9:20 2.5ft 4s 3s 25 29 mph 1014.1mb 53f 60f
8:50 2ft 4s 3s 20 22 mph 1014.2mb 53f 59f
8:20 2ft 4s 3s 22 25 mph 1014.2mb 53f 60f
7:50 2ft 4s 3s 18 22 mph 1014.3mb 53f 60f
7:20 1.6ft 3s 3s 18 22 mph 1014.5mb 53f 60f
6:50 1.6ft 3s 3s 20 22 mph 1014.5mb 54f 60f
6:20 2ft 4s 3s 13 18 mph 1014.5mb 53f 57f
5:50 1.6ft 3s 3s 18 20 mph 1014.6mb 53f 56f
5:20 1.6ft 3s 3s 18 22 mph 1014.8mb 53f 56f
4:50 1.3ft 3s 3s 18 22 mph 1015.2mb 53f 57f
4:20 1ft 2s 3s 16 18 mph 1015.5mb 53f 56f
3:50 1ft 3s 3s 16 18 mph 1015.9mb 53f 57f
3:20 1ft 3s 3s 16 18 mph 1016.3mb 53f 56f
2:50 0.7ft  -  3s 13 16 mph 1016.6mb 53f 56f
2:20 1ft 3s 3s 13 13 mph 1017mb 53f 57f
1:50 1ft 3s 3s 11 13 mph 1017.4mb 54f 57f
1:20 1ft 3s 3s 11 13 mph 1017.6mb 54f 57f
12:50 1.3ft 3s 3s 11 13 mph 1017.8mb 53f 56f
12:20 1.3ft 4s 3s 11 13 mph 1018.1mb 53f 56f
11:50 1.3ft 4s 4s 11 13 mph 1018.3mb 53f 55f
11:20 1.6ft 4s 4s 11 11 mph 1018.5mb 53f 55f
10:50 1.6ft 5s 4s 9 11 mph 1018.6mb 53f 55f
10:20 1.6ft 5s 4s 9 11 mph 1018.7mb 53f 55f
9:50 1.6ft 5s 4s 11 13 mph 1018.7mb 53f 55f
9:20 2ft 5s 4s 11 13 mph 1018.8mb 54f 55f
8:50 2ft 6s 4s 13 18 mph 1018.9mb 54f 56f
8:20 2ft 6s 4s 13 18 mph 1018.9mb 53f 55f
7:50 2.5ft 5s 5s 13 16 mph 1018.8mb 53f 55f
7:20 2.5ft 6s 5s 13 18 mph 1018.6mb 53f 55f
6:50 2ft 6s 4s 18 22 mph 1018.3mb 52f 55f
6:20 1.6ft 6s 4s 18 22 mph 1018mb 52f 55f
5:50 2ft 6s 5s 18 22 mph 1017.9mb 52f 54f
5:20 2.5ft 6s 5s 18 20 mph 1017.6mb 52f 55f
4:50 2.5ft 6s 5s 18 22 mph 1017.4mb 52f 55f
4:20 2.5ft 5s 4s 22 29 mph 1017mb 52f 55f
3:50 2.5ft 5s 4s 22 25 mph 1016.7mb 53f 55f
3:20 2.5ft 5s 4s 25 29 mph 1016.4mb 53f 55f
2:50 3ft 5s 4s 20 25 mph 1016.4mb 53f 55f
2:20 3ft 5s 4s 22 25 mph 1016.2mb 53f 55f
1:50 3ft 5s 4s 20 27 mph 1016.1mb 54f 55f
1:20 3.5ft 5s 4s 20 25 mph 1015.9mb 54f 56f
12:50 3ft 5s 4s 22 27 mph 1015.9mb 54f 56f
12:20 3.5ft 4s 4s 18 22 mph 1015.8mb 54f 56f
Ter 07/18 11:50 3ft 4s 4s 20 25 mph 1015.5mb 53f 57f
11:20 2.5ft 4s 4s 20 22 mph 1015.5mb 54f 58f
10:50 2.5ft 3s 4s 18 20 mph 1015.3mb 54f 58f
10:20 2.5ft 4s 4s 18 22 mph 1015.2mb 54f 59f
9:50 2.5ft 4s 4s 18 20 mph 1015mb 54f 59f
9:20 2.5ft 5s 4s 13 18 mph 1014.7mb 54f 58f
8:50 2.5ft 4s 4s 13 16 mph 1014.7mb 54f 56f
8:20 3ft 4s 4s 18 20 mph 1014.6mb 54f 56f
7:50 2.5ft 4s 4s 18 20 mph 1014.7mb 52f 56f
7:20 2.5ft 4s 4s 20 22 mph 1014.6mb 53f 56f
6:50 2ft 4s 3s 20 25 mph 1014.5mb 53f 56f
6:20 2ft 4s 3s 20 22 mph 1014.7mb 53f 56f
5:50 2.5ft 4s 3s 20 22 mph 1014.9mb 53f 55f
5:20 2ft 4s 3s 22 25 mph 1014.9mb 52f 56f
4:50 2ft 4s 3s 20 25 mph 1014.9mb 53f 55f
4:20 1.6ft 4s 3s 18 22 mph 1015.1mb 53f 55f
3:50 1.6ft 3s 3s 16 18 mph 1015.3mb 53f 55f
3:20 1.3ft 3s 3s 16 18 mph 1015.5mb 53f 55f
2:50 1.3ft 3s 3s 13 16 mph 1015.8mb 54f 55f
2:20 1.3ft 3s 3s 13 16 mph 1015.9mb 54f 55f
1:50 1.3ft 3s 3s 13 16 mph 1016mb 54f 55f
1:20 1.3ft 3s 3s 13 13 mph 1016.1mb 54f 55f
12:50 1.3ft 3s 3s 13 16 mph 1016.3mb 54f 55f
12:20 1.6ft 4s 3s 11 11 mph 1016.4mb 54f 55f
11:50 1.6ft 4s 3s 11 13 mph 1016.4mb 54f 54f
11:20 1.6ft 3s 3s 11 13 mph 1016.4mb 54f 53f
10:50 1.6ft 3s 3s 11 13 mph 1016.5mb 53f 52f
10:20 1.6ft 3s 4s 11 13 mph 1016.6mb 53f 52f
9:50 1.3ft 4s 3s 11 13 mph 1016.6mb 53f 52f
9:20 1.6ft 4s 4s 11 13 mph 1016.8mb 53f 52f
8:50 1.3ft 4s 4s 11 13 mph 1016.9mb 53f 52f
8:20 1ft 5s 4s 11 11 mph 1016.7mb 53f 53f
7:50 1ft 5s 4s 9 11 mph 1016.8mb 52f 53f
7:20 1ft 4s 4s 9 11 mph 1016.6mb 52f 54f
6:50 1ft 5s 4s 9 11 mph 1016.5mb 53f 54f
6:20 1ft 5s 4s 7 9 mph 1016.4mb 52f 54f
5:50 1ft 5s 4s 7 9 mph 1016.2mb 52f 54f
5:20 0.7ft  -  4s 7 9 mph 1016.1mb 53f 54f
4:50 1ft 5s 4s 7 9 mph 1015.9mb 53f 54f
4:20 1ft 5s 4s 9 11 mph 1015.8mb 53f 55f
3:50 1.3ft 4s 4s 11 13 mph 1015.7mb 53f 55f
3:20 1.3ft 4s 4s 13 16 mph 1015.7mb 53f 55f
2:50 1.3ft 4s 4s 11 13 mph 1015.7mb 53f 55f
2:20 1.6ft 4s 4s 11 13 mph 1015.6mb 53f 56f
1:50 1.6ft 4s 3s 13 16 mph 1015.6mb 53f 56f
1:20 1.6ft 3s 3s 18 20 mph 1015.5mb 53f 57f
12:50 1.6ft 4s 3s 18 20 mph 1015.5mb 53f 57f
12:20 1.6ft 3s 3s 18 20 mph 1015.6mb 53f 57f
Seg 07/17 11:50 1.6ft 3s 3s 20 22 mph 1015.6mb 53f 57f
11:20 2ft 4s 3s 20 22 mph 1015.6mb 53f 57f
10:50 2.5ft 4s 3s 18 20 mph 1015.7mb 53f 55f
10:20 2ft 3s 3s 20 22 mph 1015.7mb 53f 55f
9:50 2ft 3s 3s 18 22 mph 1015.7mb 53f 55f
9:20 2ft 3s 3s 18 20 mph 1015.5mb 53f 55f
8:50 2ft 3s 3s 18 20 mph 1015.5mb 53f 55f
8:20 1.6ft 3s 3s 18 22 mph 1015.5mb 54f 56f
7:50 1.6ft 3s 3s 16 18 mph 1015.8mb 54f 56f
7:20 1.3ft 3s 3s 16 18 mph 1015.8mb 54f 57f
6:50 1.3ft 3s 3s 18 20 mph 1015.8mb 54f 57f
6:20 1ft 3s 3s 16 18 mph 1015.8mb 55f 57f
5:50 0.7ft  -  3s 16 18 mph 1016.1mb 55f 57f
5:20 0.7ft  -  4s 13 13 mph 1016.4mb 56f 57f
4:50 0.7ft  -  4s 11 11 mph 1016.6mb 55f 57f
4:20 0.7ft  -  4s 9 11 mph 1017mb 56f 59f
3:50 0.7ft  -  4s 9 11 mph 1017.2mb 56f 57f
3:20 0.7ft  -  4s 7 7 mph 1017.5mb 56f 58f
2:50 0.7ft  -  4s 4 7 mph 1017.8mb 54f 58f
2:20 0.7ft  -  4s 4 4 mph 1018mb 55f 58f
1:50 0.7ft  -  4s 4 7 mph 1018.3mb 55f 57f
1:20 0.7ft  -  4s 9 9 mph 1018.7mb 56f 57f
12:50 1ft 6s 4s 7 9 mph 1018.8mb 55f 56f
12:20 1ft 6s 4s 4 4 mph 1018.9mb 55f 57f
11:50 1ft 6s 4s 4 4 mph 1019.1mb 54f 58f
11:20 1ft 6s 4s 4 7 mph 1019.3mb 54f 57f
10:50 1ft 6s 4s 7 7 mph 1019.5mb 53f 54f
10:20 1ft 6s 4s 4 7 mph 1019.6mb 53f 54f
9:50 1.3ft 6s 4s 7 9 mph 1019.8mb 53f 54f
9:20 1ft 6s 5s 7 7 mph 1020mb 53f 54f
8:50 1.3ft 7s 5s 7 7 mph 1020.2mb 53f 54f